sensor_id;sensor_type;location;lat;lon;timestamp;temperature;humidity
16140;DHT22;8175;49.326;12.690;2023-01-31T07:38:19;1.20;99.90
16140;DHT22;8175;49.326;12.690;2023-01-31T07:40:45;1.20;99.90
16140;DHT22;8175;49.326;12.690;2023-01-31T07:43:10;1.30;99.90
16140;DHT22;8175;49.326;12.690;2023-01-31T07:45:37;1.40;99.90
16140;DHT22;8175;49.326;12.690;2023-01-31T07:48:03;1.50;99.90
16140;DHT22;8175;49.326;12.690;2023-01-31T07:50:30;1.50;99.90
16140;DHT22;8175;49.326;12.690;2023-01-31T07:52:57;1.60;99.90
16140;DHT22;8175;49.326;12.690;2023-01-31T07:55:23;1.70;99.90
16140;DHT22;8175;49.326;12.690;2023-01-31T07:57:49;1.60;99.90
16140;DHT22;8175;49.326;12.690;2023-01-31T08:00:14;1.50;99.90
16140;DHT22;8175;49.326;12.690;2023-01-31T08:02:58;1.50;99.90
16140;DHT22;8175;49.326;12.690;2023-01-31T08:05:45;1.50;99.90
16140;DHT22;8175;49.326;12.690;2023-01-31T08:08:10;1.50;99.90
16140;DHT22;8175;49.326;12.690;2023-01-31T08:10:36;1.50;99.90
16140;DHT22;8175;49.326;12.690;2023-01-31T08:13:02;1.50;99.90
16140;DHT22;8175;49.326;12.690;2023-01-31T08:15:28;1.50;99.90
16140;DHT22;8175;49.326;12.690;2023-01-31T08:17:55;1.50;99.90
16140;DHT22;8175;49.326;12.690;2023-01-31T08:20:20;1.50;99.90
16140;DHT22;8175;49.326;12.690;2023-01-31T08:22:46;1.50;99.90
16140;DHT22;8175;49.326;12.690;2023-01-31T08:25:11;1.60;99.90
16140;DHT22;8175;49.326;12.690;2023-01-31T08:27:37;1.70;99.90
16140;DHT22;8175;49.326;12.690;2023-01-31T08:30:03;1.80;99.90
16140;DHT22;8175;49.326;12.690;2023-01-31T08:32:29;1.80;99.90
16140;DHT22;8175;49.326;12.690;2023-01-31T08:34:54;1.90;99.90
16140;DHT22;8175;49.326;12.690;2023-01-31T08:37:20;1.80;99.90
16140;DHT22;8175;49.326;12.690;2023-01-31T08:39:46;1.90;99.90
16140;DHT22;8175;49.326;12.690;2023-01-31T08:42:13;1.90;99.90
16140;DHT22;8175;49.326;12.690;2023-01-31T08:44:38;1.90;99.90
16140;DHT22;8175;49.326;12.690;2023-01-31T08:47:04;1.80;99.90
16140;DHT22;8175;49.326;12.690;2023-01-31T08:49:30;1.80;99.90
16140;DHT22;8175;49.326;12.690;2023-01-31T08:51:58;1.70;99.90
16140;DHT22;8175;49.326;12.690;2023-01-31T08:54:23;1.80;99.90
16140;DHT22;8175;49.326;12.690;2023-01-31T08:56:49;1.90;99.90
16140;DHT22;8175;49.326;12.690;2023-01-31T08:59:14;2.00;99.90
16140;DHT22;8175;49.326;12.690;2023-01-31T09:01:40;2.10;99.90
16140;DHT22;8175;49.326;12.690;2023-01-31T09:04:08;2.30;99.90
16140;DHT22;8175;49.326;12.690;2023-01-31T09:06:33;2.60;99.90
16140;DHT22;8175;49.326;12.690;2023-01-31T09:08:59;2.80;99.90
16140;DHT22;8175;49.326;12.690;2023-01-31T09:11:29;2.60;99.90
16140;DHT22;8175;49.326;12.690;2023-01-31T09:13:55;2.40;99.90
16140;DHT22;8175;49.326;12.690;2023-01-31T09:16:21;2.30;99.90
16140;DHT22;8175;49.326;12.690;2023-01-31T09:18:47;2.50;99.90
16140;DHT22;8175;49.326;12.690;2023-01-31T09:21:18;2.40;99.90
16140;DHT22;8175;49.326;12.690;2023-01-31T09:23:44;2.30;99.90
16140;DHT22;8175;49.326;12.690;2023-01-31T09:26:10;2.40;99.90
16140;DHT22;8175;49.326;12.690;2023-01-31T09:28:36;2.30;99.90
16140;DHT22;8175;49.326;12.690;2023-01-31T09:31:07;2.40;99.90
16140;DHT22;8175;49.326;12.690;2023-01-31T09:33:34;2.40;99.90
16140;DHT22;8175;49.326;12.690;2023-01-31T09:36:02;2.40;99.90
16140;DHT22;8175;49.326;12.690;2023-01-31T09:38:29;2.40;99.90
16140;DHT22;8175;49.326;12.690;2023-01-31T09:40:56;2.30;99.90
16140;DHT22;8175;49.326;12.690;2023-01-31T09:43:27;2.30;99.90
16140;DHT22;8175;49.326;12.690;2023-01-31T09:45:58;2.10;99.90
16140;DHT22;8175;49.326;12.690;2023-01-31T09:48:28;2.00;99.90
16140;DHT22;8175;49.326;12.690;2023-01-31T09:50:55;2.00;99.90
16140;DHT22;8175;49.326;12.690;2023-01-31T09:53:28;1.90;99.90
16140;DHT22;8175;49.326;12.690;2023-01-31T09:56:31;1.90;99.90
16140;DHT22;8175;49.326;12.690;2023-01-31T10:04:34;1.90;99.90
16140;DHT22;8175;49.326;12.690;2023-01-31T10:07:13;1.90;99.90
16140;DHT22;8175;49.326;12.690;2023-01-31T10:09:52;1.90;99.90
16140;DHT22;8175;49.326;12.690;2023-01-31T10:14:48;2.00;99.90
16140;DHT22;8175;49.326;12.690;2023-01-31T10:17:37;1.90;99.90
16140;DHT22;8175;49.326;12.690;2023-01-31T10:23:02;2.10;99.90
16140;DHT22;8175;49.326;12.690;2023-01-31T10:25:48;2.20;99.90
16140;DHT22;8175;49.326;12.690;2023-01-31T10:31:11;2.70;99.90
16140;DHT22;8175;49.326;12.690;2023-01-31T10:33:51;2.70;99.90
16140;DHT22;8175;49.326;12.690;2023-01-31T10:36:25;2.60;99.90
16140;DHT22;8175;49.326;12.690;2023-01-31T10:39:12;2.60;99.90
16140;DHT22;8175;49.326;12.690;2023-01-31T10:42:02;2.60;99.90
16140;DHT22;8175;49.326;12.690;2023-01-31T10:47:18;2.60;99.90
16140;DHT22;8175;49.326;12.690;2023-01-31T10:49:49;2.60;99.90
16140;DHT22;8175;49.326;12.690;2023-01-31T10:57:45;2.80;99.90
16140;DHT22;8175;49.326;12.690;2023-01-31T11:00:23;2.80;99.90
16140;DHT22;8175;49.326;12.690;2023-01-31T11:02:51;2.80;99.90
16140;DHT22;8175;49.326;12.690;2023-01-31T11:05:22;2.70;99.90
16140;DHT22;8175;49.326;12.690;2023-01-31T11:07:48;2.60;99.90
16140;DHT22;8175;49.326;12.690;2023-01-31T11:10:22;2.60;99.90
16140;DHT22;8175;49.326;12.690;2023-01-31T11:13:02;2.50;99.90
16140;DHT22;8175;49.326;12.690;2023-01-31T11:15:39;2.60;99.90
16140;DHT22;8175;49.326;12.690;2023-01-31T11:18:54;2.70;99.90
16140;DHT22;8175;49.326;12.690;2023-01-31T11:21:01;2.70;99.90
16140;DHT22;8175;49.326;12.690;2023-01-31T11:23:30;2.70;99.90
16140;DHT22;8175;49.326;12.690;2023-01-31T11:26:00;2.80;99.90
16140;DHT22;8175;49.326;12.690;2023-01-31T11:28:38;2.70;99.90
16140;DHT22;8175;49.326;12.690;2023-01-31T11:31:13;2.80;99.90
16140;DHT22;8175;49.326;12.690;2023-01-31T11:33:41;2.80;99.90
16140;DHT22;8175;49.326;12.690;2023-01-31T11:38:35;2.90;99.90
16140;DHT22;8175;49.326;12.690;2023-01-31T11:41:03;2.90;99.90
16140;DHT22;8175;49.326;12.690;2023-01-31T11:43:47;2.90;99.90
16140;DHT22;8175;49.326;12.690;2023-01-31T11:46:12;3.00;99.90
16140;DHT22;8175;49.326;12.690;2023-01-31T11:48:39;3.10;99.90
16140;DHT22;8175;49.326;12.690;2023-01-31T11:51:05;3.10;99.90
16140;DHT22;8175;49.326;12.690;2023-01-31T11:53:49;3.10;99.90
16140;DHT22;8175;49.326;12.690;2023-01-31T11:56:25;3.00;99.90
16140;DHT22;8175;49.326;12.690;2023-01-31T11:58:54;3.00;99.90
16140;DHT22;8175;49.326;12.690;2023-01-31T12:01:23;2.90;99.90
16140;DHT22;8175;49.326;12.690;2023-01-31T12:03:54;2.90;99.90
16140;DHT22;8175;49.326;12.690;2023-01-31T12:06:30;3.00;99.90
16140;DHT22;8175;49.326;12.690;2023-01-31T12:08:58;3.10;99.90
16140;DHT22;8175;49.326;12.690;2023-01-31T12:16:33;3.30;99.90
16140;DHT22;8175;49.326;12.690;2023-01-31T12:21:53;3.00;99.90
16140;DHT22;8175;49.326;12.690;2023-01-31T12:30:25;2.90;99.90
16140;DHT22;8175;49.326;12.690;2023-01-31T12:33:23;2.80;99.90
16140;DHT22;8175;49.326;12.690;2023-01-31T12:44:10;2.70;99.90
16140;DHT22;8175;49.326;12.690;2023-01-31T12:46:58;2.60;99.90
16140;DHT22;8175;49.326;12.690;2023-01-31T12:49:50;2.50;99.90
16140;DHT22;8175;49.326;12.690;2023-01-31T12:55:07;2.40;99.90
16140;DHT22;8175;49.326;12.690;2023-01-31T13:05:52;2.70;99.90
16140;DHT22;8175;49.326;12.690;2023-01-31T13:08:28;2.70;99.90
16140;DHT22;8175;49.326;12.690;2023-01-31T13:13:32;2.70;99.90
16140;DHT22;8175;49.326;12.690;2023-01-31T13:16:13;2.60;99.90
16140;DHT22;8175;49.326;12.690;2023-01-31T13:18:42;2.60;99.90
16140;DHT22;8175;49.326;12.690;2023-01-31T13:21:15;2.80;99.90
16140;DHT22;8175;49.326;12.690;2023-01-31T13:23:58;2.90;99.90
16140;DHT22;8175;49.326;12.690;2023-01-31T13:26:32;2.90;99.90
16140;DHT22;8175;49.326;12.690;2023-01-31T13:29:28;3.00;99.90
16140;DHT22;8175;49.326;12.690;2023-01-31T13:32:02;3.00;99.90
16140;DHT22;8175;49.326;12.690;2023-01-31T13:34:50;2.80;99.90
16140;DHT22;8175;49.326;12.690;2023-01-31T13:37:17;2.90;99.90
16140;DHT22;8175;49.326;12.690;2023-01-31T13:40:37;2.80;99.90
16140;DHT22;8175;49.326;12.690;2023-01-31T13:42:43;2.70;99.90
16140;DHT22;8175;49.326;12.690;2023-01-31T13:45:31;2.60;99.90
16140;DHT22;8175;49.326;12.690;2023-01-31T13:48:06;2.60;99.90
16140;DHT22;8175;49.326;12.690;2023-01-31T13:50:43;2.60;99.90
16140;DHT22;8175;49.326;12.690;2023-01-31T13:53:20;2.60;99.90
16140;DHT22;8175;49.326;12.690;2023-01-31T13:55:49;2.50;99.90
16140;DHT22;8175;49.326;12.690;2023-01-31T13:58:23;2.40;99.90
16140;DHT22;8175;49.326;12.690;2023-01-31T14:00:56;2.50;99.90
16140;DHT22;8175;49.326;12.690;2023-01-31T14:03:25;2.50;99.90
16140;DHT22;8175;49.326;12.690;2023-01-31T14:05:59;2.50;99.90
16140;DHT22;8175;49.326;12.690;2023-01-31T14:13:48;2.40;99.90
16140;DHT22;8175;49.326;12.690;2023-01-31T14:16:37;2.30;99.90
16140;DHT22;8175;49.326;12.690;2023-01-31T14:19:09;2.40;99.90
16140;DHT22;8175;49.326;12.690;2023-01-31T14:22:03;2.30;99.90
16140;DHT22;8175;49.326;12.690;2023-01-31T14:29:47;2.30;99.90
16140;DHT22;8175;49.326;12.690;2023-01-31T14:37:57;2.20;99.90
16140;DHT22;8175;49.326;12.690;2023-01-31T14:51:15;2.20;99.90
16140;DHT22;8175;49.326;12.690;2023-01-31T14:56:38;2.10;99.90
16140;DHT22;8175;49.326;12.690;2023-01-31T15:05:09;2.10;99.90
16140;DHT22;8175;49.326;12.690;2023-01-31T15:08:08;2.10;99.90
16140;DHT22;8175;49.326;12.690;2023-01-31T15:11:00;2.10;99.90
16140;DHT22;8175;49.326;12.690;2023-01-31T15:13:50;2.10;99.90
16140;DHT22;8175;49.326;12.690;2023-01-31T15:21:31;2.00;99.90
16140;DHT22;8175;49.326;12.690;2023-01-31T15:23:59;2.00;99.90
16140;DHT22;8175;49.326;12.690;2023-01-31T15:26:28;1.90;99.90
16140;DHT22;8175;49.326;12.690;2023-01-31T15:28:55;1.90;99.90
16140;DHT22;8175;49.326;12.690;2023-01-31T15:31:31;1.90;99.90
16140;DHT22;8175;49.326;12.690;2023-01-31T15:34:02;1.90;99.90
16140;DHT22;8175;49.326;12.690;2023-01-31T15:36:34;2.00;99.90
16140;DHT22;8175;49.326;12.690;2023-01-31T15:39:19;1.90;99.90
16140;DHT22;8175;49.326;12.690;2023-01-31T15:41:45;1.90;99.90
16140;DHT22;8175;49.326;12.690;2023-01-31T15:44:25;2.00;99.90
16140;DHT22;8175;49.326;12.690;2023-01-31T15:46:54;2.00;99.90
16140;DHT22;8175;49.326;12.690;2023-01-31T16:52:50;1.00;99.90
16140;DHT22;8175;49.326;12.690;2023-01-31T16:55:20;0.90;99.90
16140;DHT22;8175;49.326;12.690;2023-01-31T16:57:46;0.90;99.90
16140;DHT22;8175;49.326;12.690;2023-01-31T17:02:56;0.90;99.90
16140;DHT22;8175;49.326;12.690;2023-01-31T17:05:42;1.00;99.90
16140;DHT22;8175;49.326;12.690;2023-01-31T17:08:17;1.00;99.90
16140;DHT22;8175;49.326;12.690;2023-01-31T17:10:43;1.00;99.90
16140;DHT22;8175;49.326;12.690;2023-01-31T17:13:22;1.00;99.90
16140;DHT22;8175;49.326;12.690;2023-01-31T17:15:49;1.00;99.90
16140;DHT22;8175;49.326;12.690;2023-01-31T17:18:15;1.00;99.90
16140;DHT22;8175;49.326;12.690;2023-01-31T17:20:43;1.00;99.90
16140;DHT22;8175;49.326;12.690;2023-01-31T17:23:10;1.00;99.90
16140;DHT22;8175;49.326;12.690;2023-01-31T17:25:36;1.00;99.90
16140;DHT22;8175;49.326;12.690;2023-01-31T17:28:03;1.00;99.90
16140;DHT22;8175;49.326;12.690;2023-01-31T17:30:29;0.90;99.90
16140;DHT22;8175;49.326;12.690;2023-01-31T17:32:58;0.90;99.90
16140;DHT22;8175;49.326;12.690;2023-01-31T17:35:26;0.90;99.90
16140;DHT22;8175;49.326;12.690;2023-01-31T17:37:53;0.90;99.90
16140;DHT22;8175;49.326;12.690;2023-01-31T17:40:19;0.90;99.90
16140;DHT22;8175;49.326;12.690;2023-01-31T17:42:45;0.90;99.90
16140;DHT22;8175;49.326;12.690;2023-01-31T17:45:12;0.90;99.90
16140;DHT22;8175;49.326;12.690;2023-01-31T17:47:40;0.90;99.90
16140;DHT22;8175;49.326;12.690;2023-01-31T17:50:06;0.80;99.90
16140;DHT22;8175;49.326;12.690;2023-01-31T17:52:32;0.80;99.90
16140;DHT22;8175;49.326;12.690;2023-01-31T17:54:57;0.80;99.90
16140;DHT22;8175;49.326;12.690;2023-01-31T17:57:23;0.90;99.90
16140;DHT22;8175;49.326;12.690;2023-01-31T17:59:49;0.90;99.90
16140;DHT22;8175;49.326;12.690;2023-01-31T18:02:14;0.90;99.90
16140;DHT22;8175;49.326;12.690;2023-01-31T18:04:40;0.90;99.90
16140;DHT22;8175;49.326;12.690;2023-01-31T18:07:05;0.90;99.90
16140;DHT22;8175;49.326;12.690;2023-01-31T18:09:31;0.80;99.90
16140;DHT22;8175;49.326;12.690;2023-01-31T18:11:57;0.80;99.90
16140;DHT22;8175;49.326;12.690;2023-01-31T18:14:22;0.80;99.90
16140;DHT22;8175;49.326;12.690;2023-01-31T18:16:49;0.90;99.90
16140;DHT22;8175;49.326;12.690;2023-01-31T18:19:18;0.80;99.90
16140;DHT22;8175;49.326;12.690;2023-01-31T18:21:44;0.80;99.90
16140;DHT22;8175;49.326;12.690;2023-01-31T18:24:10;0.80;99.90
16140;DHT22;8175;49.326;12.690;2023-01-31T18:26:35;0.80;99.90
16140;DHT22;8175;49.326;12.690;2023-01-31T18:29:01;0.90;99.90
16140;DHT22;8175;49.326;12.690;2023-01-31T18:31:27;0.90;99.90
16140;DHT22;8175;49.326;12.690;2023-01-31T18:33:52;1.00;99.90
16140;DHT22;8175;49.326;12.690;2023-01-31T18:36:19;0.90;99.90
16140;DHT22;8175;49.326;12.690;2023-01-31T18:38:46;1.00;99.90
16140;DHT22;8175;49.326;12.690;2023-01-31T18:41:14;1.00;99.90
16140;DHT22;8175;49.326;12.690;2023-01-31T18:43:41;1.00;99.90
16140;DHT22;8175;49.326;12.690;2023-01-31T18:46:07;1.00;99.90
16140;DHT22;8175;49.326;12.690;2023-01-31T18:48:35;1.00;99.90
16140;DHT22;8175;49.326;12.690;2023-01-31T18:51:07;1.10;99.90
16140;DHT22;8175;49.326;12.690;2023-01-31T18:53:40;1.10;99.90
16140;DHT22;8175;49.326;12.690;2023-01-31T18:56:18;1.10;99.90
16140;DHT22;8175;49.326;12.690;2023-01-31T18:58:45;1.10;99.90
16140;DHT22;8175;49.326;12.690;2023-01-31T19:01:14;1.10;99.90
16140;DHT22;8175;49.326;12.690;2023-01-31T19:03:41;1.10;99.90
16140;DHT22;8175;49.326;12.690;2023-01-31T19:06:12;1.10;99.90
16140;DHT22;8175;49.326;12.690;2023-01-31T19:08:38;1.10;99.90
16140;DHT22;8175;49.326;12.690;2023-01-31T19:11:09;1.10;99.90
16140;DHT22;8175;49.326;12.690;2023-01-31T19:13:36;1.10;99.90
16140;DHT22;8175;49.326;12.690;2023-01-31T19:16:05;1.00;99.90
16140;DHT22;8175;49.326;12.690;2023-01-31T19:18:31;1.00;99.90
16140;DHT22;8175;49.326;12.690;2023-01-31T19:20:57;1.00;99.90
16140;DHT22;8175;49.326;12.690;2023-01-31T19:23:23;1.00;99.90
16140;DHT22;8175;49.326;12.690;2023-01-31T19:25:48;1.00;99.90
16140;DHT22;8175;49.326;12.690;2023-01-31T19:28:14;1.00;99.90
16140;DHT22;8175;49.326;12.690;2023-01-31T19:30:40;1.00;99.90
16140;DHT22;8175;49.326;12.690;2023-01-31T19:33:06;1.00;99.90
16140;DHT22;8175;49.326;12.690;2023-01-31T19:35:32;1.00;99.90
16140;DHT22;8175;49.326;12.690;2023-01-31T19:37:58;1.00;99.90
16140;DHT22;8175;49.326;12.690;2023-01-31T19:40:24;1.00;99.90
16140;DHT22;8175;49.326;12.690;2023-01-31T19:42:50;0.90;99.90
16140;DHT22;8175;49.326;12.690;2023-01-31T19:45:16;0.90;99.90
16140;DHT22;8175;49.326;12.690;2023-01-31T19:47:41;1.00;99.90
16140;DHT22;8175;49.326;12.690;2023-01-31T19:50:07;1.00;99.90
16140;DHT22;8175;49.326;12.690;2023-01-31T19:52:33;0.90;99.90
16140;DHT22;8175;49.326;12.690;2023-01-31T19:55:00;0.90;99.90
16140;DHT22;8175;49.326;12.690;2023-01-31T19:57:26;1.00;99.90
16140;DHT22;8175;49.326;12.690;2023-01-31T19:59:52;0.90;99.90
16140;DHT22;8175;49.326;12.690;2023-01-31T20:02:17;0.90;99.90
16140;DHT22;8175;49.326;12.690;2023-01-31T20:04:43;0.90;99.90
16140;DHT22;8175;49.326;12.690;2023-01-31T20:07:09;0.90;99.90
16140;DHT22;8175;49.326;12.690;2023-01-31T20:09:35;1.00;99.90
16140;DHT22;8175;49.326;12.690;2023-01-31T20:12:00;1.00;99.90
16140;DHT22;8175;49.326;12.690;2023-01-31T20:14:26;1.00;99.90
16140;DHT22;8175;49.326;12.690;2023-01-31T20:16:54;1.00;99.90
16140;DHT22;8175;49.326;12.690;2023-01-31T20:19:20;1.00;99.90
16140;DHT22;8175;49.326;12.690;2023-01-31T20:21:47;1.00;99.90
16140;DHT22;8175;49.326;12.690;2023-01-31T20:24:13;1.00;99.90
16140;DHT22;8175;49.326;12.690;2023-01-31T20:26:38;1.10;99.90
16140;DHT22;8175;49.326;12.690;2023-01-31T20:29:04;1.10;99.90
16140;DHT22;8175;49.326;12.690;2023-01-31T20:31:30;1.10;99.90
16140;DHT22;8175;49.326;12.690;2023-01-31T20:33:55;1.20;99.90
16140;DHT22;8175;49.326;12.690;2023-01-31T20:36:21;1.10;99.90
16140;DHT22;8175;49.326;12.690;2023-01-31T20:38:50;1.20;99.90
16140;DHT22;8175;49.326;12.690;2023-01-31T20:41:15;1.10;99.90
16140;DHT22;8175;49.326;12.690;2023-01-31T20:43:42;1.10;99.90
16140;DHT22;8175;49.326;12.690;2023-01-31T20:46:12;1.20;99.90
16140;DHT22;8175;49.326;12.690;2023-01-31T20:48:39;1.20;99.90
16140;DHT22;8175;49.326;12.690;2023-01-31T20:51:05;1.20;99.90
16140;DHT22;8175;49.326;12.690;2023-01-31T20:53:31;1.30;99.90
16140;DHT22;8175;49.326;12.690;2023-01-31T20:55:58;1.30;99.90
16140;DHT22;8175;49.326;12.690;2023-01-31T20:58:26;1.30;99.90
16140;DHT22;8175;49.326;12.690;2023-01-31T21:00:53;1.30;99.90
16140;DHT22;8175;49.326;12.690;2023-01-31T21:03:19;1.30;99.90
16140;DHT22;8175;49.326;12.690;2023-01-31T21:05:45;1.30;99.90
16140;DHT22;8175;49.326;12.690;2023-01-31T21:08:11;1.30;99.90
16140;DHT22;8175;49.326;12.690;2023-01-31T21:10:36;1.30;99.90
16140;DHT22;8175;49.326;12.690;2023-01-31T21:13:02;1.30;99.90
16140;DHT22;8175;49.326;12.690;2023-01-31T21:15:27;1.30;99.90
16140;DHT22;8175;49.326;12.690;2023-01-31T21:17:53;1.30;99.90
16140;DHT22;8175;49.326;12.690;2023-01-31T21:20:19;1.40;99.90
16140;DHT22;8175;49.326;12.690;2023-01-31T21:22:44;1.40;99.90
16140;DHT22;8175;49.326;12.690;2023-01-31T21:25:10;1.40;99.90
16140;DHT22;8175;49.326;12.690;2023-01-31T21:27:35;1.40;99.90
16140;DHT22;8175;49.326;12.690;2023-01-31T21:30:01;1.40;99.90
16140;DHT22;8175;49.326;12.690;2023-01-31T21:32:27;1.40;99.90
16140;DHT22;8175;49.326;12.690;2023-01-31T21:34:53;1.40;99.90
16140;DHT22;8175;49.326;12.690;2023-01-31T21:37:18;1.40;99.90
16140;DHT22;8175;49.326;12.690;2023-01-31T21:39:44;1.40;99.90
16140;DHT22;8175;49.326;12.690;2023-01-31T21:42:10;1.40;99.90
16140;DHT22;8175;49.326;12.690;2023-01-31T21:44:46;1.50;99.90
16140;DHT22;8175;49.326;12.690;2023-01-31T21:47:13;1.50;99.90
16140;DHT22;8175;49.326;12.690;2023-01-31T21:49:39;1.50;99.90
16140;DHT22;8175;49.326;12.690;2023-01-31T21:52:05;1.40;99.90
16140;DHT22;8175;49.326;12.690;2023-01-31T21:54:32;1.50;99.90
16140;DHT22;8175;49.326;12.690;2023-01-31T21:56:58;1.50;99.90
16140;DHT22;8175;49.326;12.690;2023-01-31T21:59:24;1.50;99.90
16140;DHT22;8175;49.326;12.690;2023-01-31T22:01:50;1.50;99.90
16140;DHT22;8175;49.326;12.690;2023-01-31T22:04:16;1.50;99.90
16140;DHT22;8175;49.326;12.690;2023-01-31T22:06:45;1.50;99.90
16140;DHT22;8175;49.326;12.690;2023-01-31T22:09:12;1.50;99.90
16140;DHT22;8175;49.326;12.690;2023-01-31T22:11:38;1.50;99.90
16140;DHT22;8175;49.326;12.690;2023-01-31T22:14:07;1.50;99.90
16140;DHT22;8175;49.326;12.690;2023-01-31T22:16:34;1.50;99.90
16140;DHT22;8175;49.326;12.690;2023-01-31T22:19:00;1.50;99.90
16140;DHT22;8175;49.326;12.690;2023-01-31T22:21:28;1.50;99.90
16140;DHT22;8175;49.326;12.690;2023-01-31T22:23:56;1.50;99.90
16140;DHT22;8175;49.326;12.690;2023-01-31T22:26:26;1.50;99.90
16140;DHT22;8175;49.326;12.690;2023-01-31T22:28:54;1.50;99.90
16140;DHT22;8175;49.326;12.690;2023-01-31T22:31:20;1.50;99.90
16140;DHT22;8175;49.326;12.690;2023-01-31T22:33:46;1.50;99.90
16140;DHT22;8175;49.326;12.690;2023-01-31T22:36:14;1.50;99.90
16140;DHT22;8175;49.326;12.690;2023-01-31T22:38:40;1.60;99.90
16140;DHT22;8175;49.326;12.690;2023-01-31T22:41:09;1.50;99.90
16140;DHT22;8175;49.326;12.690;2023-01-31T22:43:40;1.60;99.90
16140;DHT22;8175;49.326;12.690;2023-01-31T22:46:07;1.60;99.90
16140;DHT22;8175;49.326;12.690;2023-01-31T22:48:34;1.70;99.90
16140;DHT22;8175;49.326;12.690;2023-01-31T22:51:02;1.60;99.90
16140;DHT22;8175;49.326;12.690;2023-01-31T22:53:30;1.60;99.90
16140;DHT22;8175;49.326;12.690;2023-01-31T22:56:05;1.70;99.90
16140;DHT22;8175;49.326;12.690;2023-01-31T22:58:30;1.70;99.90
16140;DHT22;8175;49.326;12.690;2023-01-31T23:00:56;1.60;99.90
16140;DHT22;8175;49.326;12.690;2023-01-31T23:03:22;1.60;99.90
16140;DHT22;8175;49.326;12.690;2023-01-31T23:05:48;1.60;99.90
16140;DHT22;8175;49.326;12.690;2023-01-31T23:08:14;1.60;99.90
16140;DHT22;8175;49.326;12.690;2023-01-31T23:10:41;1.60;99.90
16140;DHT22;8175;49.326;12.690;2023-01-31T23:13:07;1.60;99.90
16140;DHT22;8175;49.326;12.690;2023-01-31T23:15:34;1.60;99.90
16140;DHT22;8175;49.326;12.690;2023-01-31T23:18:00;1.60;99.90
16140;DHT22;8175;49.326;12.690;2023-01-31T23:20:27;1.60;99.90
16140;DHT22;8175;49.326;12.690;2023-01-31T23:22:56;1.60;99.90
16140;DHT22;8175;49.326;12.690;2023-01-31T23:25:24;1.60;99.90
16140;DHT22;8175;49.326;12.690;2023-01-31T23:27:50;1.60;99.90
16140;DHT22;8175;49.326;12.690;2023-01-31T23:32:42;1.70;99.90
16140;DHT22;8175;49.326;12.690;2023-01-31T23:35:08;1.70;99.90
16140;DHT22;8175;49.326;12.690;2023-01-31T23:37:34;1.60;99.90
16140;DHT22;8175;49.326;12.690;2023-01-31T23:40:00;1.70;99.90
16140;DHT22;8175;49.326;12.690;2023-01-31T23:42:26;1.70;99.90
16140;DHT22;8175;49.326;12.690;2023-01-31T23:44:51;1.70;99.90
16140;DHT22;8175;49.326;12.690;2023-01-31T23:47:17;1.70;99.90
16140;DHT22;8175;49.326;12.690;2023-01-31T23:49:44;1.70;99.90
16140;DHT22;8175;49.326;12.690;2023-01-31T23:52:09;1.70;99.90
16140;DHT22;8175;49.326;12.690;2023-01-31T23:54:35;1.70;99.90
16140;DHT22;8175;49.326;12.690;2023-01-31T23:57:01;1.70;99.90
16140;DHT22;8175;49.326;12.690;2023-01-31T23:59:28;1.60;99.90
